Time;durP1;ratioP1;P1;durP2;ratioP2;P2;SDS_P1;SDS_P2;PMS_P1;PMS_P2;Temp;Humidity;BMP_temperature;BMP_pressure;BME280_temperature;BME280_humidity;BME280_pressure;Samples;Min_cycle;Max_cycle;Signal;HPM_P1;HPM_P2
2023/05/27 00:00:38;;;;;;;21.17;4.70;;;13.10;99.90;;;;;;5073785;28;20032;-76
2023/05/27 00:03:04;;;;;;;15.57;5.10;;;13.00;99.90;;;;;;5054639;28;20017;-76
2023/05/27 00:05:30;;;;;;;19.57;5.13;;;13.00;99.90;;;;;;5053944;28;20024;-76
2023/05/27 00:07:56;;;;;;;19.87;5.10;;;12.90;99.90;;;;;;5070792;28;20032;-76
2023/05/27 00:10:24;;;;;;;17.13;4.27;;;12.90;99.90;;;;;;5053909;28;20047;-76
2023/05/27 00:12:50;;;;;;;24.63;5.47;;;12.80;99.90;;;;;;5057400;28;20029;-76
2023/05/27 00:15:18;;;;;;;15.90;4.50;;;12.80;99.90;;;;;;5060667;28;20055;-77
2023/05/27 00:17:43;;;;;;;21.13;4.80;;;12.80;99.90;;;;;;5069845;28;20089;-76
2023/05/27 00:20:10;;;;;;;19.13;5.47;;;12.70;99.90;;;;;;5052333;28;20030;-76
2023/05/27 00:22:47;;;;;;;16.63;4.67;;;12.70;99.90;;;;;;5061409;28;20041;-76
2023/05/27 00:25:13;;;;;;;19.50;4.43;;;12.60;99.90;;;;;;5073460;28;20009;-76
2023/05/27 00:27:38;;;;;;;23.07;5.97;;;12.60;99.90;;;;;;5055205;28;20040;-75
2023/05/27 00:30:05;;;;;;;20.40;5.10;;;12.50;99.90;;;;;;5071651;28;20036;-76
2023/05/27 00:32:36;;;;;;;15.17;4.60;;;12.50;99.90;;;;;;5071425;28;20124;-75
2023/05/27 00:35:02;;;;;;;16.10;4.87;;;12.50;99.90;;;;;;5056061;28;20082;-76
2023/05/27 00:37:30;;;;;;;18.07;4.53;;;12.40;99.90;;;;;;5058894;28;20056;-76
2023/05/27 00:39:55;;;;;;;17.63;4.90;;;12.40;99.90;;;;;;5072446;28;20029;-77
2023/05/27 00:42:21;;;;;;;17.60;4.80;;;12.30;99.90;;;;;;5053633;28;20046;-76
2023/05/27 00:44:47;;;;;;;14.03;3.90;;;12.30;99.90;;;;;;5056781;28;20032;-76
2023/05/27 00:47:15;;;;;;;17.37;5.00;;;12.10;99.90;;;;;;5052486;28;20024;-76
2023/05/27 00:49:42;;;;;;;24.10;5.63;;;12.20;99.90;;;;;;5073907;28;20025;-76
2023/05/27 00:52:08;;;;;;;16.07;4.87;;;12.00;99.90;;;;;;5077457;23;20098;-76
2023/05/27 00:54:34;;;;;;;15.87;4.43;;;12.10;99.90;;;;;;5057237;28;20098;-76
2023/05/27 00:57:02;;;;;;;22.50;5.63;;;12.10;99.90;;;;;;5055880;28;20029;-76
2023/05/27 00:59:28;;;;;;;21.37;5.37;;;12.00;99.90;;;;;;5056558;28;20013;-76
2023/05/27 01:01:54;;;;;;;19.03;4.77;;;12.20;99.90;;;;;;5056682;28;20045;-76
2023/05/27 01:04:20;;;;;;;17.80;5.30;;;11.90;99.90;;;;;;5055643;28;20044;-76
2023/05/27 01:07:21;;;;;;;19.63;4.53;;;11.60;99.90;;;;;;5056580;28;20033;-76
2023/05/27 01:09:52;;;;;;;22.27;5.07;;;11.80;99.90;;;;;;5056243;28;20033;-75
2023/05/27 01:12:35;;;;;;;17.37;5.33;;;11.80;99.90;;;;;;5055911;28;20032;-75
2023/05/27 01:15:04;;;;;;;;;;;11.70;99.90;;;;;;5073971;28;20052;-76
2023/05/27 01:17:34;;;;;;;17.73;5.20;;;11.60;99.90;;;;;;5073731;28;19909;-75
2023/05/27 01:20:01;;;;;;;16.30;5.43;;;11.60;99.90;;;;;;5055950;28;20014;-75
2023/05/27 01:22:31;;;;;;;14.00;4.47;;;11.50;99.90;;;;;;5056449;28;20040;-77
2023/05/27 01:24:57;;;;;;;19.77;5.03;;;11.40;99.90;;;;;;5056138;28;20036;-75
2023/05/27 01:27:26;;;;;;;16.60;5.00;;;11.30;99.90;;;;;;5056350;28;20017;-76
2023/05/27 01:29:53;;;;;;;16.97;4.97;;;11.30;99.90;;;;;;5055962;28;20017;-76
2023/05/27 01:32:21;;;;;;;20.67;5.47;;;11.20;99.90;;;;;;5056877;28;20123;-77
2023/05/27 01:34:58;;;;;;;19.40;6.00;;;11.00;99.90;;;;;;5074171;28;20013;-76
2023/05/27 01:37:29;;;;;;;12.60;5.07;;;11.20;99.90;;;;;;5056139;28;20060;-75
2023/05/27 01:40:14;;;;;;;19.93;5.40;;;11.20;99.90;;;;;;5072575;28;20044;-75
2023/05/27 01:45:43;;;;;;;13.52;4.10;;;11.10;99.90;;;;;;5072953;28;20045;-77
2023/05/27 01:48:09;;;;;;;23.63;5.57;;;11.00;99.90;;;;;;5056139;28;20021;-73
2023/05/27 01:50:36;;;;;;;17.87;5.37;;;10.80;99.90;;;;;;5072042;28;20064;-73
2023/05/27 01:53:03;;;;;;;21.50;5.07;;;11.00;99.90;;;;;;5051487;28;20075;-79
2023/05/27 01:55:30;;;;;;;17.07;5.10;;;10.70;99.90;;;;;;5059377;28;20029;-77
2023/05/27 01:57:56;;;;;;;21.23;5.47;;;10.90;99.90;;;;;;5058761;28;20025;-77
2023/05/27 02:00:22;;;;;;;19.40;5.73;;;10.80;99.90;;;;;;5055977;28;20106;-79
2023/05/27 02:02:48;;;;;;;21.93;5.40;;;10.70;99.90;;;;;;5041066;28;20048;-79
2023/05/27 02:05:14;;;;;;;27.13;5.13;;;10.70;99.90;;;;;;5038779;28;20029;-77
2023/05/27 02:07:40;;;;;;;17.07;5.10;;;10.70;99.90;;;;;;5041190;28;20040;-79
2023/05/27 02:10:06;;;;;;;21.43;5.50;;;10.70;99.90;;;;;;5035713;28;20067;-76
2023/05/27 02:12:32;;;;;;;21.53;5.97;;;10.60;99.90;;;;;;5037012;28;20098;-79
2023/05/27 02:14:57;;;;;;;15.83;5.17;;;10.60;99.90;;;;;;5035318;28;20033;-79
2023/05/27 02:17:24;;;;;;;19.77;5.13;;;10.50;99.90;;;;;;5037697;28;20475;-79
2023/05/27 02:19:50;;;;;;;16.60;5.00;;;10.40;99.90;;;;;;5037379;28;20025;-79
2023/05/27 02:22:17;;;;;;;20.63;5.47;;;10.40;99.90;;;;;;5053139;28;20055;-78
2023/05/27 02:24:42;;;;;;;14.90;5.83;;;10.40;99.90;;;;;;5035523;28;20036;-79
2023/05/27 02:27:08;;;;;;;15.83;5.13;;;10.40;99.90;;;;;;5035378;28;20033;-78
2023/05/27 02:29:34;;;;;;;14.93;4.70;;;10.40;99.90;;;;;;5036013;28;20036;-77
2023/05/27 02:32:00;;;;;;;24.30;5.80;;;10.30;99.90;;;;;;5035781;28;20396;-78
2023/05/27 02:34:25;;;;;;;16.80;4.87;;;10.20;99.90;;;;;;5054302;28;20203;-79
2023/05/27 02:36:51;;;;;;;11.77;4.70;;;10.50;99.90;;;;;;5036322;28;20518;-78
2023/05/27 02:39:17;;;;;;;17.03;5.03;;;10.20;99.90;;;;;;5035087;28;20031;-78
2023/05/27 02:41:43;;;;;;;16.07;5.10;;;10.30;99.90;;;;;;5035943;28;20037;-79
2023/05/27 02:44:08;;;;;;;21.07;5.23;;;10.10;99.90;;;;;;5035935;28;20095;-78
2023/05/27 02:46:34;;;;;;;15.57;4.30;;;9.90;99.90;;;;;;5034650;28;20032;-78
2023/05/27 02:49:00;;;;;;;18.10;5.90;;;10.10;99.90;;;;;;5034884;28;20040;-79
2023/05/27 02:51:25;;;;;;;14.10;4.40;;;10.00;99.90;;;;;;5033909;28;20033;-78
2023/05/27 02:53:51;;;;;;;20.70;5.57;;;10.00;99.90;;;;;;5052754;28;20044;-78
2023/05/27 02:56:17;;;;;;;22.13;5.23;;;10.00;99.90;;;;;;5035448;28;20097;-78
2023/05/27 02:58:43;;;;;;;18.40;5.90;;;10.10;99.90;;;;;;5035519;28;20021;-80
2023/05/27 03:01:09;;;;;;;13.30;5.07;;;9.90;99.90;;;;;;5051380;28;20025;-79
2023/05/27 03:03:35;;;;;;;20.30;5.20;;;9.90;99.90;;;;;;5034362;28;20082;-76
2023/05/27 03:06:00;;;;;;;13.40;4.80;;;9.90;99.90;;;;;;5052958;28;20037;-79
2023/05/27 03:08:26;;;;;;;28.60;6.13;;;9.90;99.90;;;;;;5052578;28;20040;-77
2023/05/27 03:10:52;;;;;;;17.80;5.27;;;9.90;99.90;;;;;;5034717;28;20060;-80
2023/05/27 03:13:18;;;;;;;15.20;5.50;;;9.70;99.90;;;;;;5052762;28;20137;-78
2023/05/27 03:15:43;;;;;;;16.80;5.13;;;9.40;99.90;;;;;;5035008;28;20028;-78
2023/05/27 03:18:09;;;;;;;16.27;4.83;;;10.00;99.90;;;;;;5035154;28;20181;-79
2023/05/27 03:20:35;;;;;;;15.53;5.00;;;9.90;99.90;;;;;;5034962;28;20417;-77
2023/05/27 03:23:01;;;;;;;16.37;5.07;;;9.60;99.90;;;;;;5052640;28;21674;-79
2023/05/27 03:25:26;;;;;;;17.10;4.77;;;9.60;99.90;;;;;;5035809;28;20029;-78
2023/05/27 03:27:53;;;;;;;16.10;5.80;;;9.50;99.90;;;;;;5052214;28;20195;-79
2023/05/27 03:30:19;;;;;;;23.13;5.20;;;9.60;99.90;;;;;;5036096;28;20325;-79
2023/05/27 03:32:45;;;;;;;21.27;5.60;;;9.10;99.90;;;;;;5035196;28;20029;-78
2023/05/27 03:35:11;;;;;;;26.57;6.80;;;9.50;99.90;;;;;;5035388;28;20371;-80
2023/05/27 03:37:36;;;;;;;19.23;4.90;;;9.40;99.90;;;;;;5034978;28;20572;-79
2023/05/27 03:40:03;;;;;;;13.70;4.87;;;9.50;99.90;;;;;;5052503;28;20473;-78
2023/05/27 03:42:28;;;;;;;22.17;6.37;;;9.30;99.90;;;;;;5037352;28;20039;-79
2023/05/27 03:44:54;;;;;;;17.90;5.27;;;9.30;99.90;;;;;;5057112;28;20051;-79
2023/05/27 03:47:21;;;;;;;23.60;5.47;;;9.30;99.90;;;;;;5039087;28;20037;-79
2023/05/27 03:49:48;;;;;;;19.57;5.27;;;9.30;99.90;;;;;;5038913;28;20134;-80
2023/05/27 03:52:14;;;;;;;26.37;5.50;;;9.30;99.90;;;;;;5038349;28;20051;-78
2023/05/27 03:54:41;;;;;;;21.17;5.27;;;9.40;99.90;;;;;;5038645;28;20033;-77
2023/05/27 03:57:07;;;;;;;17.43;5.03;;;9.30;99.90;;;;;;5038791;28;20032;-78
2023/05/27 03:59:33;;;;;;;19.23;5.53;;;9.50;99.90;;;;;;5039211;28;20955;-80
2023/05/27 04:01:58;;;;;;;16.37;4.57;;;9.40;99.90;;;;;;5038875;28;20501;-77
2023/05/27 04:04:24;;;;;;;20.70;5.70;;;9.30;99.90;;;;;;5039216;28;20044;-78
2023/05/27 04:06:50;;;;;;;20.73;4.90;;;9.20;99.90;;;;;;5039779;28;20044;-80
2023/05/27 04:09:16;;;;;;;14.93;5.70;;;9.00;99.90;;;;;;5056145;28;20048;-78
2023/05/27 04:11:42;;;;;;;16.20;4.97;;;9.30;99.90;;;;;;5038710;28;21353;-78
2023/05/27 04:14:07;;;;;;;14.30;4.93;;;9.00;99.90;;;;;;5059442;28;20052;-77
2023/05/27 04:16:33;;;;;;;23.60;5.47;;;9.30;99.90;;;;;;5039058;28;20124;-79
2023/05/27 04:18:59;;;;;;;20.57;5.30;;;9.30;99.90;;;;;;5058236;28;20024;-78
2023/05/27 04:21:25;;;;;;;22.13;5.23;;;9.30;99.90;;;;;;5039458;28;20098;-78
2023/05/27 04:23:51;;;;;;;20.23;5.83;;;9.20;99.90;;;;;;5038291;28;20041;-79
2023/05/27 04:26:18;;;;;;;20.97;5.50;;;9.30;99.90;;;;;;5037536;28;20028;-78
2023/05/27 04:28:45;;;;;;;22.37;5.03;;;9.50;99.90;;;;;;5055218;28;20096;-77
2023/05/27 04:31:12;;;;;;;17.60;5.47;;;9.60;99.90;;;;;;5038900;28;20058;-78
2023/05/27 04:33:39;;;;;;;20.40;5.23;;;9.20;99.90;;;;;;5038534;28;20240;-78
2023/05/27 04:36:06;;;;;;;15.37;5.53;;;9.50;99.90;;;;;;5039927;28;20116;-78
2023/05/27 04:38:32;;;;;;;17.03;5.10;;;9.40;99.90;;;;;;5038558;28;20033;-79
2023/05/27 04:40:58;;;;;;;18.07;5.33;;;9.50;99.90;;;;;;5038271;28;20020;-79
2023/05/27 04:43:26;;;;;;;19.83;5.43;;;9.40;99.90;;;;;;5038284;28;20463;-79
2023/05/27 04:45:52;;;;;;;15.90;5.20;;;9.40;99.90;;;;;;5039386;28;20017;-79
2023/05/27 04:48:19;;;;;;;19.53;5.63;;;9.50;99.90;;;;;;5037393;28;20102;-77
2023/05/27 04:50:45;;;;;;;18.37;5.57;;;9.50;99.90;;;;;;5039805;28;20029;-78
2023/05/27 04:53:11;;;;;;;17.47;5.60;;;9.50;99.90;;;;;;5038527;28;20044;-78
2023/05/27 04:55:38;;;;;;;15.67;5.00;;;9.60;99.90;;;;;;5038302;28;20025;-79
2023/05/27 04:58:05;;;;;;;15.90;5.73;;;9.60;99.90;;;;;;5039057;28;20028;-78
2023/05/27 05:00:49;;;;;;;22.97;5.50;;;9.80;99.90;;;;;;5038683;28;20025;-76
2023/05/27 05:03:39;;;;;;;23.50;5.50;;;9.70;99.90;;;;;;5057284;28;20033;-78
2023/05/27 05:06:03;;;;;;;19.60;5.77;;;10.00;99.90;;;;;;5058752;28;20097;-79
2023/05/27 05:08:29;;;;;;;20.13;5.30;;;9.80;99.90;;;;;;5058961;28;20021;-80
2023/05/27 05:10:55;;;;;;;24.67;6.07;;;9.80;99.90;;;;;;5059885;28;20032;-78
2023/05/27 05:13:21;;;;;;;18.93;5.47;;;9.90;99.90;;;;;;5060897;28;20032;-79
2023/05/27 05:15:47;;;;;;;18.33;5.63;;;9.90;99.90;;;;;;5039864;28;20111;-78
2023/05/27 05:18:13;;;;;;;15.17;5.30;;;10.00;99.90;;;;;;5041528;28;20064;-78
2023/05/27 05:20:39;;;;;;;14.37;5.60;;;10.00;99.90;;;;;;5041982;28;20155;-77
2023/05/27 05:23:06;;;;;;;24.03;5.60;;;10.10;99.90;;;;;;5042832;28;20025;-77
2023/05/27 05:25:37;;;;;;;25.17;5.67;;;10.10;99.90;;;;;;5060565;28;20066;-79
2023/05/27 05:28:04;;;;;;;23.67;4.93;;;10.30;99.90;;;;;;5043210;28;20017;-79
2023/05/27 05:30:31;;;;;;;31.13;6.83;;;10.30;99.90;;;;;;5042921;28;20029;-79
2023/05/27 05:32:57;;;;;;;24.20;6.07;;;10.30;99.90;;;;;;5044019;28;20029;-79
2023/05/27 05:35:23;;;;;;;28.93;5.83;;;10.40;99.90;;;;;;5042467;28;20028;-78
2023/05/27 05:37:49;;;;;;;23.57;6.80;;;10.50;99.90;;;;;;5042993;28;20032;-79
2023/05/27 05:40:15;;;;;;;19.17;5.87;;;10.60;99.90;;;;;;5058327;28;20053;-78
2023/05/27 05:42:40;;;;;;;19.73;6.60;;;10.60;99.90;;;;;;5043163;28;20053;-76
2023/05/27 05:45:07;;;;;;;24.73;6.47;;;10.60;99.90;;;;;;5045239;28;20033;-76
2023/05/27 05:47:33;;;;;;;26.47;7.13;;;10.80;99.90;;;;;;5045857;28;20376;-77
2023/05/27 05:49:59;;;;;;;21.90;6.50;;;10.80;99.90;;;;;;5064533;28;20040;-78
2023/05/27 05:52:25;;;;;;;18.30;5.67;;;10.90;99.90;;;;;;5063653;28;20044;-78
2023/05/27 05:54:51;;;;;;;18.23;5.63;;;10.90;99.90;;;;;;5065413;28;20025;-75
2023/05/27 05:57:17;;;;;;;17.30;6.53;;;10.90;99.90;;;;;;5048141;28;20075;-77
2023/05/27 05:59:42;;;;;;;22.53;5.87;;;11.20;99.90;;;;;;5065641;28;20032;-74
2023/05/27 06:02:08;;;;;;;26.17;6.80;;;11.10;99.90;;;;;;5047762;28;20032;-78
2023/05/27 06:04:34;;;;;;;18.03;6.67;;;11.20;99.90;;;;;;5048943;28;20051;-77
2023/05/27 06:07:00;;;;;;;14.13;5.17;;;11.20;99.90;;;;;;5050174;28;20035;-75
2023/05/27 06:09:26;;;;;;;17.97;5.90;;;11.40;99.90;;;;;;5048315;28;20044;-78
2023/05/27 06:11:52;;;;;;;17.40;6.00;;;11.30;99.90;;;;;;5049325;28;20037;-76
2023/05/27 06:14:18;;;;;;;19.67;6.23;;;11.40;99.90;;;;;;5049822;28;20032;-78
2023/05/27 06:16:44;;;;;;;21.87;6.33;;;11.40;99.90;;;;;;5050413;28;20033;-77
2023/05/27 06:19:10;;;;;;;21.57;6.33;;;11.50;99.90;;;;;;5048810;28;20036;-76
2023/05/27 06:21:36;;;;;;;25.97;6.57;;;11.50;99.90;;;;;;5067826;28;20272;-77
2023/05/27 06:24:02;;;;;;;20.73;6.23;;;11.60;99.90;;;;;;5049831;28;20040;-77
2023/05/27 06:26:28;;;;;;;24.90;6.40;;;11.60;99.90;;;;;;5049898;28;20025;-76
2023/05/27 06:28:54;;;;;;;24.70;4.93;;;11.70;99.90;;;;;;5068191;28;20025;-78
2023/05/27 06:31:20;;;;;;;21.80;6.33;;;11.80;99.90;;;;;;5049855;28;20033;-76
2023/05/27 06:33:46;;;;;;;20.50;5.37;;;11.80;99.90;;;;;;5050292;28;20033;-76
2023/05/27 06:36:12;;;;;;;15.77;4.97;;;11.80;99.90;;;;;;5049869;28;20283;-76
2023/05/27 06:38:37;;;;;;;18.63;4.97;;;11.90;99.90;;;;;;5050837;28;20028;-77
2023/05/27 06:41:03;;;;;;;19.23;5.10;;;12.00;99.90;;;;;;5068532;28;20039;-78
2023/05/27 06:43:29;;;;;;;15.53;4.93;;;12.00;99.90;;;;;;5052137;28;20028;-74
2023/05/27 06:45:55;;;;;;;20.47;5.23;;;12.10;99.90;;;;;;5049982;28;20052;-76
2023/05/27 06:48:21;;;;;;;14.37;5.10;;;12.10;99.90;;;;;;5051084;28;20044;-75
2023/05/27 06:50:47;;;;;;;18.33;4.57;;;12.10;99.90;;;;;;5051653;28;20043;-77
2023/05/27 06:53:13;;;;;;;17.30;5.60;;;12.30;99.90;;;;;;5050713;28;20036;-75
2023/05/27 06:55:39;;;;;;;20.10;4.70;;;12.40;99.90;;;;;;5050622;28;20017;-77
2023/05/27 06:58:06;;;;;;;19.20;4.80;;;12.40;99.90;;;;;;5051513;28;20024;-75
2023/05/27 07:00:35;;;;;;;17.50;4.83;;;12.40;99.90;;;;;;5068643;28;20009;-76
2023/05/27 07:03:01;;;;;;;20.63;5.37;;;12.50;99.90;;;;;;5051979;28;20041;-74
2023/05/27 07:05:27;;;;;;;17.30;5.30;;;12.40;99.90;;;;;;5069240;28;20096;-77
2023/05/27 07:07:53;;;;;;;20.97;5.30;;;12.70;99.90;;;;;;5051733;28;20025;-75
2023/05/27 07:10:19;;;;;;;24.00;6.57;;;12.80;99.90;;;;;;5051703;28;20025;-74
2023/05/27 07:12:45;;;;;;;19.00;5.60;;;12.80;99.90;;;;;;5068095;28;20013;-77
2023/05/27 07:15:11;;;;;;;19.90;5.10;;;12.80;99.90;;;;;;5069460;28;20024;-74
2023/05/27 07:17:36;;;;;;;23.50;6.33;;;12.80;99.90;;;;;;5052843;28;20353;-74
2023/05/27 07:20:03;;;;;;;20.10;5.50;;;12.80;99.90;;;;;;5056277;28;21281;-78
2023/05/27 07:22:29;;;;;;;20.73;5.60;;;12.80;99.90;;;;;;5055219;28;20035;-75
2023/05/27 07:24:54;;;;;;;20.40;5.13;;;12.80;99.90;;;;;;5055761;28;20104;-74
2023/05/27 07:27:20;;;;;;;20.50;5.50;;;12.80;99.90;;;;;;5055973;28;20017;-75
2023/05/27 07:29:46;;;;;;;19.53;5.33;;;13.00;99.90;;;;;;5056322;28;20021;-76
2023/05/27 07:32:12;;;;;;;16.83;5.20;;;13.00;99.90;;;;;;5055057;28;20097;-74
2023/05/27 07:34:37;;;;;;;18.27;5.53;;;13.10;99.90;;;;;;5072840;28;20116;-75
2023/05/27 07:37:03;;;;;;;17.23;4.90;;;13.10;99.90;;;;;;5056473;28;20037;-76
2023/05/27 07:39:29;;;;;;;17.07;5.73;;;13.10;99.90;;;;;;5073989;28;20020;-75
2023/05/27 07:41:55;;;;;;;13.77;5.13;;;13.10;99.90;;;;;;5054258;28;20041;-78
2023/05/27 07:44:20;;;;;;;21.17;5.73;;;13.20;99.90;;;;;;5071263;28;21271;-76
2023/05/27 07:46:46;;;;;;;20.43;5.67;;;13.20;99.90;;;;;;5071267;28;20416;-77
2023/05/27 07:49:14;;;;;;;20.90;4.73;;;13.20;99.90;;;;;;5050699;28;20033;-75
2023/05/27 07:51:40;;;;;;;19.70;5.50;;;13.30;99.90;;;;;;5049913;28;20029;-79
2023/05/27 07:54:06;;;;;;;18.10;4.73;;;13.40;99.90;;;;;;5044547;28;20040;-78
2023/05/27 07:56:31;;;;;;;20.27;6.43;;;13.30;99.90;;;;;;5044292;28;20469;-78
2023/05/27 07:58:57;;;;;;;17.57;6.10;;;13.40;99.90;;;;;;5063669;28;20021;-78
2023/05/27 08:01:24;;;;;;;15.00;4.90;;;13.40;99.90;;;;;;5045333;28;20021;-78
2023/05/27 08:03:50;;;;;;;20.00;6.43;;;13.50;99.90;;;;;;5063622;28;20024;-79
2023/05/27 08:06:17;;;;;;;17.23;5.13;;;13.50;99.90;;;;;;5043969;28;20029;-78
2023/05/27 08:08:44;;;;;;;13.23;5.67;;;13.50;99.90;;;;;;5063016;28;20029;-79
2023/05/27 08:11:09;;;;;;;21.57;5.73;;;13.60;99.90;;;;;;5046694;28;20055;-80
2023/05/27 08:13:35;;;;;;;13.80;5.20;;;13.60;99.90;;;;;;5047218;28;20029;-79
2023/05/27 08:16:01;;;;;;;20.67;5.70;;;13.50;99.90;;;;;;5046752;28;20037;-78
2023/05/27 08:18:26;;;;;;;17.90;5.53;;;13.70;99.90;;;;;;5045622;28;20029;-79
2023/05/27 08:20:52;;;;;;;18.27;6.00;;;13.70;99.90;;;;;;5043358;28;20030;-79
2023/05/27 08:23:18;;;;;;;16.67;5.50;;;13.70;99.90;;;;;;5043380;28;20027;-80
2023/05/27 08:25:44;;;;;;;18.70;4.93;;;13.90;99.90;;;;;;5043667;28;20095;-78
2023/05/27 08:28:09;;;;;;;14.87;5.10;;;13.90;99.90;;;;;;5060105;28;20417;-79
2023/05/27 08:30:35;;;;;;;18.07;5.50;;;14.00;99.90;;;;;;5043055;28;20957;-79
2023/05/27 08:33:00;;;;;;;9.90;4.20;;;14.10;99.90;;;;;;5045288;28;20061;-77
2023/05/27 08:35:26;;;;;;;21.90;5.57;;;14.10;99.90;;;;;;5044680;28;20048;-78
2023/05/27 08:37:52;;;;;;;17.10;6.43;;;14.20;99.90;;;;;;5045366;28;20125;-78
2023/05/27 08:40:19;;;;;;;15.87;5.20;;;14.30;99.90;;;;;;5043102;28;20266;-76
2023/05/27 08:42:47;;;;;;;16.17;5.43;;;14.30;99.90;;;;;;5060915;28;20033;-79
2023/05/27 08:45:13;;;;;;;15.63;4.80;;;14.30;99.90;;;;;;5042414;28;20106;-78
2023/05/27 08:47:42;;;;;;;16.70;5.30;;;14.30;99.90;;;;;;5043727;28;20480;-79
2023/05/27 08:50:09;;;;;;;16.70;4.93;;;14.30;99.90;;;;;;5060987;28;20113;-79
2023/05/27 08:52:42;;;;;;;22.10;5.77;;;14.50;99.90;;;;;;5043913;28;20028;-78
2023/05/27 08:55:09;;;;;;;19.38;5.63;;;14.50;99.90;;;;;;5042996;28;20118;-75
2023/05/27 08:57:35;;;;;;;23.70;5.28;;;14.60;99.90;;;;;;5042936;28;20029;-78
2023/05/27 09:00:01;;;;;;;15.63;5.20;;;14.60;99.90;;;;;;5042397;28;20108;-78
2023/05/27 09:02:27;;;;;;;17.60;4.93;;;14.60;99.90;;;;;;5043027;28;20087;-77
2023/05/27 09:04:53;;;;;;;18.23;5.70;;;14.70;99.90;;;;;;5041335;28;20059;-76
2023/05/27 09:07:22;;;;;;;18.60;4.95;;;14.70;99.90;;;;;;5060762;28;20048;-79
2023/05/27 09:13:49;;;;;;;20.60;4.85;;;15.10;99.90;;;;;;5016148;28;20046;-78
2023/05/27 09:16:31;;;;;;;11.43;4.53;;;14.80;99.90;;;;;;4997198;28;20232;-79
2023/05/27 09:19:00;;;;;;;13.50;4.65;;;15.10;99.90;;;;;;5013898;28;20030;-77
2023/05/27 09:25:07;;;;;;;18.75;4.90;;;15.20;99.90;;;;;;5015687;28;20037;-76
2023/05/27 09:32:01;;;;;;;15.40;4.85;;;15.40;99.90;;;;;;4946963;28;20072;-76
2023/05/27 09:34:38;;;;;;;16.48;4.65;;;15.50;99.90;;;;;;4956355;28;20109;-78
2023/05/27 09:37:17;;;;;;;19.52;5.22;;;15.50;99.90;;;;;;4939908;28;20047;-75
2023/05/27 09:39:54;;;;;;;14.43;4.40;;;15.60;99.90;;;;;;4958079;28;20031;-76
2023/05/27 09:42:27;;;;;;;13.27;4.60;;;15.70;99.90;;;;;;4970566;28;20122;-76
2023/05/27 09:44:54;;;;;;;15.70;5.15;;;15.90;99.90;;;;;;4968439;28;20031;-79
2023/05/27 09:47:22;;;;;;;14.70;4.65;;;16.00;99.90;;;;;;4969334;28;20039;-77
2023/05/27 09:49:51;;;;;;;16.00;4.10;;;16.10;99.90;;;;;;4967281;28;20031;-76
2023/05/27 09:52:20;;;;;;;14.82;5.05;;;16.10;99.90;;;;;;4966581;28;20136;-76
2023/05/27 09:54:47;;;;;;;13.18;4.10;;;16.30;99.90;;;;;;4981582;28;20035;-76
2023/05/27 09:57:14;;;;;;;17.45;5.25;;;16.50;99.90;;;;;;4982233;28;20046;-79
2023/05/27 09:59:41;;;;;;;12.60;4.15;;;16.60;99.90;;;;;;4978917;28;20034;-78
2023/05/27 10:02:07;;;;;;;10.13;4.10;;;16.70;99.90;;;;;;5031911;28;20067;-75
2023/05/27 10:04:33;;;;;;;17.30;4.78;;;16.80;99.90;;;;;;5036924;28;20025;-78
2023/05/27 10:07:02;;;;;;;16.80;4.22;;;16.90;99.90;;;;;;5036963;28;20056;-78
2023/05/27 10:09:28;;;;;;;12.63;3.95;;;16.90;99.90;;;;;;5033448;28;20035;-77
2023/05/27 10:11:54;;;;;;;11.90;4.65;;;17.00;99.90;;;;;;5041262;28;20033;-78
2023/05/27 10:14:20;;;;;;;18.35;4.82;;;17.00;99.90;;;;;;5034525;28;20113;-77
2023/05/27 10:16:55;;;;;;;15.75;5.22;;;17.00;99.90;;;;;;5035726;28;20460;-78
2023/05/27 10:19:22;;;;;;;12.00;3.90;;;17.00;99.90;;;;;;5036496;28;20073;-77
2023/05/27 10:21:48;;;;;;;15.20;4.28;;;17.10;99.90;;;;;;5034459;28;20052;-78
2023/05/27 10:24:16;;;;;;;12.93;3.40;;;17.10;99.90;;;;;;5052440;28;20883;-78
2023/05/27 10:26:43;;;;;;;15.00;4.20;;;17.10;99.90;;;;;;5059110;28;20152;-77
2023/05/27 10:29:14;;;;;;;19.40;4.93;;;17.20;99.90;;;;;;5035986;28;20426;-78
2023/05/27 10:31:46;;;;;;;17.65;4.32;;;17.30;99.90;;;;;;5036869;28;20552;-78
2023/05/27 10:34:12;;;;;;;11.13;4.15;;;17.30;99.90;;;;;;5037817;28;20029;-79
2023/05/27 10:36:38;;;;;;;17.20;4.10;;;17.40;99.90;;;;;;5036478;28;20059;-78
2023/05/27 10:39:05;;;;;;;9.20;4.15;;;17.50;99.90;;;;;;5037892;28;20048;-77
2023/05/27 10:41:48;;;;;;;12.73;3.75;;;17.50;99.90;;;;;;5041085;28;20021;-76
2023/05/27 10:44:25;;;;;;;13.45;4.18;;;17.50;99.60;;;;;;5044451;28;20025;-76
2023/05/27 10:47:03;;;;;;;11.20;3.70;;;17.60;98.30;;;;;;5057088;28;20037;-76
2023/05/27 10:49:38;;;;;;;12.32;3.95;;;17.60;97.60;;;;;;5049217;28;20025;-79
2023/05/27 10:52:12;;;;;;;12.57;4.07;;;17.80;97.80;;;;;;5028361;28;20037;-78
2023/05/27 10:54:38;;;;;;;10.18;4.03;;;17.80;97.30;;;;;;5034090;28;20118;-78
2023/05/27 10:57:04;;;;;;;13.55;4.28;;;17.90;97.10;;;;;;5062835;28;20044;-74
2023/05/27 10:59:40;;;;;;;13.32;4.70;;;18.00;95.80;;;;;;5042274;28;20361;-77
2023/05/27 11:02:06;;;;;;;14.40;4.50;;;18.10;96.30;;;;;;5049628;28;20029;-78
2023/05/27 11:04:36;;;;;;;14.50;4.53;;;18.20;96.30;;;;;;5029775;28;20036;-80
2023/05/27 11:07:11;;;;;;;10.40;3.75;;;18.20;96.10;;;;;;5029995;28;20132;-78
2023/05/27 11:09:51;;;;;;;12.15;4.15;;;18.10;94.80;;;;;;5031323;28;20365;-76
2023/05/27 11:12:18;;;;;;;15.45;4.13;;;18.20;94.50;;;;;;5030767;28;20044;-79
2023/05/27 11:14:45;;;;;;;7.60;3.55;;;18.20;93.30;;;;;;5035974;28;20125;-79
2023/05/27 11:17:11;;;;;;;11.40;3.63;;;18.20;93.30;;;;;;5036979;28;20041;-79
2023/05/27 11:19:39;;;;;;;14.07;4.00;;;18.40;92.90;;;;;;5048954;28;20033;-77
2023/05/27 11:22:05;;;;;;;11.23;4.22;;;18.40;92.40;;;;;;5030266;28;20017;-80
2023/05/27 11:24:31;;;;;;;8.82;3.88;;;18.40;92.60;;;;;;5030300;28;20035;-80
2023/05/27 11:26:57;;;;;;;10.70;4.90;;;18.60;93.30;;;;;;5047532;28;20041;-79
2023/05/27 11:29:23;;;;;;;17.73;4.55;;;18.70;93.30;;;;;;5048812;28;20855;-80
2023/05/27 11:31:51;;;;;;;7.80;3.60;;;18.80;92.70;;;;;;5047733;28;20040;-79
2023/05/27 11:34:20;;;;;;;16.75;3.83;;;18.80;94.60;;;;;;5030086;28;20469;-80
2023/05/27 11:36:53;;;;;;;8.70;3.30;;;18.90;93.90;;;;;;5048095;28;20029;-79
2023/05/27 11:39:19;;;;;;;10.30;3.97;;;19.00;92.30;;;;;;5030155;28;21971;-82
2023/05/27 11:41:55;;;;;;;12.57;4.00;;;18.90;90.70;;;;;;5030528;28;20112;-81
2023/05/27 11:44:22;;;;;;;11.05;4.10;;;19.00;91.20;;;;;;5048137;28;20245;-81
2023/05/27 11:46:51;;;;;;;10.50;3.58;;;18.90;90.70;;;;;;5032044;28;20047;-79
2023/05/27 11:49:19;;;;;;;9.88;3.05;;;19.10;89.70;;;;;;5045176;28;20033;-78
2023/05/27 11:51:50;;;;;;;10.90;3.55;;;19.20;84.80;;;;;;5046196;28;20017;-78
2023/05/27 11:54:28;;;;;;;10.52;3.70;;;19.40;83.90;;;;;;5028676;28;20021;-78
2023/05/27 11:56:56;;;;;;;9.73;4.15;;;19.40;82.50;;;;;;5046190;28;20033;-79
2023/05/27 11:59:25;;;;;;;11.50;3.97;;;19.50;83.70;;;;;;5045350;28;20453;-78
2023/05/27 12:01:55;;;;;;;12.38;3.67;;;19.50;80.90;;;;;;5046853;28;20461;-79
2023/05/27 12:04:20;;;;;;;12.43;3.42;;;19.50;83.00;;;;;;5031364;28;20029;-79
2023/05/27 12:06:47;;;;;;;11.45;3.67;;;19.70;78.90;;;;;;5050748;28;20055;-80
2023/05/27 12:09:13;;;;;;;9.20;3.50;;;19.80;79.00;;;;;;5031159;28;20059;-79
2023/05/27 12:11:41;;;;;;;10.80;4.15;;;19.70;78.80;;;;;;5031251;28;20112;-78
2023/05/27 12:14:07;;;;;;;11.30;4.30;;;19.90;79.40;;;;;;5049434;28;20033;-80
2023/05/27 12:16:33;;;;;;;8.05;3.17;;;19.90;76.20;;;;;;5031386;28;20037;-77
2023/05/27 12:18:59;;;;;;;10.32;3.45;;;19.90;76.30;;;;;;5049584;28;20021;-82
2023/05/27 12:21:24;;;;;;;12.48;3.28;;;20.00;74.90;;;;;;5049291;28;20140;-78
2023/05/27 12:23:53;;;;;;;11.10;3.33;;;20.20;75.20;;;;;;5047207;28;20033;-79
2023/05/27 12:26:18;;;;;;;11.30;3.53;;;20.30;73.70;;;;;;5046930;28;20118;-78
2023/05/27 12:28:45;;;;;;;8.85;3.42;;;20.40;73.80;;;;;;5032952;28;21579;-82
2023/05/27 12:31:11;;;;;;;12.18;4.30;;;20.50;72.40;;;;;;5052697;28;20055;-81
2023/05/27 12:33:39;;;;;;;11.27;3.53;;;20.60;72.20;;;;;;5035214;28;20029;-80
2023/05/27 12:36:05;;;;;;;10.73;3.70;;;20.50;71.60;;;;;;5035154;28;20044;-80
2023/05/27 12:38:31;;;;;;;11.57;4.03;;;20.40;69.70;;;;;;5054685;28;20035;-82
2023/05/27 12:40:57;;;;;;;10.80;4.00;;;20.60;71.50;;;;;;5053886;28;20021;-82
2023/05/27 12:43:24;;;;;;;9.63;3.15;;;20.70;70.80;;;;;;5054061;28;20025;-82
2023/05/27 12:45:50;;;;;;;8.80;3.47;;;20.90;70.90;;;;;;5037100;28;20021;-81
2023/05/27 12:48:17;;;;;;;9.13;3.60;;;21.20;71.00;;;;;;5035694;28;20075;-81
2023/05/27 12:50:43;;;;;;;10.70;3.63;;;21.40;69.40;;;;;;5035031;28;20029;-80
2023/05/27 12:53:09;;;;;;;11.27;3.60;;;21.50;68.40;;;;;;5035744;28;20353;-81